sensor_id;sensor_type;location;lat;lon;timestamp;temperature;humidity
10129;DHT22;5104;50.720;7.044;2023-12-20T00:00:21;7.80;99.90
10129;DHT22;5104;50.720;7.044;2023-12-20T00:02:48;7.80;99.90
10129;DHT22;5104;50.720;7.044;2023-12-20T00:05:15;7.80;99.90
10129;DHT22;5104;50.720;7.044;2023-12-20T00:07:42;7.80;99.90
10129;DHT22;5104;50.720;7.044;2023-12-20T00:10:09;7.80;99.90
10129;DHT22;5104;50.720;7.044;2023-12-20T00:12:38;7.80;99.90
10129;DHT22;5104;50.720;7.044;2023-12-20T00:15:08;7.80;99.90
10129;DHT22;5104;50.720;7.044;2023-12-20T00:17:35;7.80;99.90
10129;DHT22;5104;50.720;7.044;2023-12-20T00:20:02;7.80;99.90
10129;DHT22;5104;50.720;7.044;2023-12-20T00:22:29;7.80;99.90
10129;DHT22;5104;50.720;7.044;2023-12-20T00:24:55;7.80;99.90
10129;DHT22;5104;50.720;7.044;2023-12-20T00:27:22;7.80;99.90
10129;DHT22;5104;50.720;7.044;2023-12-20T00:29:49;7.80;99.90
10129;DHT22;5104;50.720;7.044;2023-12-20T00:32:18;7.70;99.90
10129;DHT22;5104;50.720;7.044;2023-12-20T00:34:45;7.80;99.90
10129;DHT22;5104;50.720;7.044;2023-12-20T00:37:11;7.70;99.90
10129;DHT22;5104;50.720;7.044;2023-12-20T00:39:38;7.80;99.90
10129;DHT22;5104;50.720;7.044;2023-12-20T00:42:05;7.80;99.90
10129;DHT22;5104;50.720;7.044;2023-12-20T00:44:32;7.80;99.90
10129;DHT22;5104;50.720;7.044;2023-12-20T00:46:59;7.80;99.90
10129;DHT22;5104;50.720;7.044;2023-12-20T00:49:28;7.80;99.90
10129;DHT22;5104;50.720;7.044;2023-12-20T00:51:54;7.80;99.90
10129;DHT22;5104;50.720;7.044;2023-12-20T00:54:21;7.80;99.90
10129;DHT22;5104;50.720;7.044;2023-12-20T00:56:48;7.80;99.90
10129;DHT22;5104;50.720;7.044;2023-12-20T00:59:16;7.80;99.90
10129;DHT22;5104;50.720;7.044;2023-12-20T01:01:43;7.80;99.90
10129;DHT22;5104;50.720;7.044;2023-12-20T01:04:10;7.80;99.90
10129;DHT22;5104;50.720;7.044;2023-12-20T01:06:38;7.90;99.90
10129;DHT22;5104;50.720;7.044;2023-12-20T01:09:05;7.90;99.90
10129;DHT22;5104;50.720;7.044;2023-12-20T01:11:32;7.90;99.90
10129;DHT22;5104;50.720;7.044;2023-12-20T01:13:59;7.90;99.90
10129;DHT22;5104;50.720;7.044;2023-12-20T01:16:26;7.90;99.90
10129;DHT22;5104;50.720;7.044;2023-12-20T01:18:53;7.90;99.90
10129;DHT22;5104;50.720;7.044;2023-12-20T01:21:19;8.00;99.90
10129;DHT22;5104;50.720;7.044;2023-12-20T01:23:48;8.00;99.90
10129;DHT22;5104;50.720;7.044;2023-12-20T01:26:15;8.00;99.90
10129;DHT22;5104;50.720;7.044;2023-12-20T01:28:42;8.00;99.90
10129;DHT22;5104;50.720;7.044;2023-12-20T01:31:09;8.00;99.90
10129;DHT22;5104;50.720;7.044;2023-12-20T01:33:36;8.10;99.90
10129;DHT22;5104;50.720;7.044;2023-12-20T01:36:03;8.10;99.90
10129;DHT22;5104;50.720;7.044;2023-12-20T01:38:38;8.10;99.90
10129;DHT22;5104;50.720;7.044;2023-12-20T01:41:05;8.10;99.90
10129;DHT22;5104;50.720;7.044;2023-12-20T01:43:32;8.10;99.90
10129;DHT22;5104;50.720;7.044;2023-12-20T01:45:59;8.00;99.90
10129;DHT22;5104;50.720;7.044;2023-12-20T01:48:28;8.00;99.90
10129;DHT22;5104;50.720;7.044;2023-12-20T01:50:58;7.90;99.90
10129;DHT22;5104;50.720;7.044;2023-12-20T01:53:25;7.80;99.90
10129;DHT22;5104;50.720;7.044;2023-12-20T01:55:56;7.80;99.90
10129;DHT22;5104;50.720;7.044;2023-12-20T01:58:25;7.90;99.90
10129;DHT22;5104;50.720;7.044;2023-12-20T02:00:52;7.90;99.90
10129;DHT22;5104;50.720;7.044;2023-12-20T02:03:19;7.80;99.90
10129;DHT22;5104;50.720;7.044;2023-12-20T02:05:47;7.90;99.90
10129;DHT22;5104;50.720;7.044;2023-12-20T02:08:14;7.90;99.90
10129;DHT22;5104;50.720;7.044;2023-12-20T02:10:41;7.90;99.90
10129;DHT22;5104;50.720;7.044;2023-12-20T02:13:09;7.90;99.90
10129;DHT22;5104;50.720;7.044;2023-12-20T02:15:36;7.90;99.90
10129;DHT22;5104;50.720;7.044;2023-12-20T02:18:04;7.90;99.90
10129;DHT22;5104;50.720;7.044;2023-12-20T02:20:31;7.80;99.90
10129;DHT22;5104;50.720;7.044;2023-12-20T02:22:59;7.70;99.90
10129;DHT22;5104;50.720;7.044;2023-12-20T02:25:26;7.60;99.90
10129;DHT22;5104;50.720;7.044;2023-12-20T02:27:53;7.50;99.90
10129;DHT22;5104;50.720;7.044;2023-12-20T02:30:21;7.40;99.90
10129;DHT22;5104;50.720;7.044;2023-12-20T02:32:48;7.30;99.90
10129;DHT22;5104;50.720;7.044;2023-12-20T02:35:15;7.10;99.90
10129;DHT22;5104;50.720;7.044;2023-12-20T02:37:42;7.00;99.90
10129;DHT22;5104;50.720;7.044;2023-12-20T02:40:10;6.90;99.90
10129;DHT22;5104;50.720;7.044;2023-12-20T02:42:37;6.80;99.90
10129;DHT22;5104;50.720;7.044;2023-12-20T02:45:05;6.70;99.90
10129;DHT22;5104;50.720;7.044;2023-12-20T02:47:32;6.70;99.90
10129;DHT22;5104;50.720;7.044;2023-12-20T02:49:59;6.50;99.90
10129;DHT22;5104;50.720;7.044;2023-12-20T02:52:28;6.50;99.90
10129;DHT22;5104;50.720;7.044;2023-12-20T02:54:55;6.50;99.90
10129;DHT22;5104;50.720;7.044;2023-12-20T02:57:23;6.50;99.90
10129;DHT22;5104;50.720;7.044;2023-12-20T02:59:50;6.50;99.90
10129;DHT22;5104;50.720;7.044;2023-12-20T03:02:17;6.50;99.90
10129;DHT22;5104;50.720;7.044;2023-12-20T03:04:44;6.40;99.90
10129;DHT22;5104;50.720;7.044;2023-12-20T03:07:11;6.40;99.90
10129;DHT22;5104;50.720;7.044;2023-12-20T03:09:38;6.30;99.90
10129;DHT22;5104;50.720;7.044;2023-12-20T03:12:05;6.40;99.90
10129;DHT22;5104;50.720;7.044;2023-12-20T03:14:33;6.40;99.90
10129;DHT22;5104;50.720;7.044;2023-12-20T03:17:00;6.50;99.90
10129;DHT22;5104;50.720;7.044;2023-12-20T03:19:27;6.50;99.90
10129;DHT22;5104;50.720;7.044;2023-12-20T03:21:54;6.50;99.90
10129;DHT22;5104;50.720;7.044;2023-12-20T03:24:21;6.60;99.90
10129;DHT22;5104;50.720;7.044;2023-12-20T03:26:48;6.60;99.90
10129;DHT22;5104;50.720;7.044;2023-12-20T03:29:15;6.60;99.90
10129;DHT22;5104;50.720;7.044;2023-12-20T03:31:43;6.60;99.90
10129;DHT22;5104;50.720;7.044;2023-12-20T03:34:11;6.70;99.90
10129;DHT22;5104;50.720;7.044;2023-12-20T03:36:38;6.70;99.90
10129;DHT22;5104;50.720;7.044;2023-12-20T03:39:04;6.70;99.90
10129;DHT22;5104;50.720;7.044;2023-12-20T03:41:31;6.70;99.90
10129;DHT22;5104;50.720;7.044;2023-12-20T03:43:58;6.70;99.90
10129;DHT22;5104;50.720;7.044;2023-12-20T03:46:25;6.80;99.90
10129;DHT22;5104;50.720;7.044;2023-12-20T03:48:53;6.80;99.90
10129;DHT22;5104;50.720;7.044;2023-12-20T03:51:20;6.80;99.90
10129;DHT22;5104;50.720;7.044;2023-12-20T03:53:47;6.80;99.90
10129;DHT22;5104;50.720;7.044;2023-12-20T03:56:14;6.90;99.90
10129;DHT22;5104;50.720;7.044;2023-12-20T03:58:41;6.90;99.90
10129;DHT22;5104;50.720;7.044;2023-12-20T04:01:09;6.90;99.90
10129;DHT22;5104;50.720;7.044;2023-12-20T04:03:38;6.90;99.90
10129;DHT22;5104;50.720;7.044;2023-12-20T04:06:07;6.90;99.90
10129;DHT22;5104;50.720;7.044;2023-12-20T04:08:34;6.90;99.90
10129;DHT22;5104;50.720;7.044;2023-12-20T04:11:00;6.90;99.90
10129;DHT22;5104;50.720;7.044;2023-12-20T04:13:27;6.90;99.90
10129;DHT22;5104;50.720;7.044;2023-12-20T04:15:54;7.00;99.90
10129;DHT22;5104;50.720;7.044;2023-12-20T04:18:21;6.90;99.90
10129;DHT22;5104;50.720;7.044;2023-12-20T04:20:48;7.00;99.90
10129;DHT22;5104;50.720;7.044;2023-12-20T04:23:16;7.00;99.90
10129;DHT22;5104;50.720;7.044;2023-12-20T04:25:43;7.00;99.90
10129;DHT22;5104;50.720;7.044;2023-12-20T04:28:10;7.00;99.90
10129;DHT22;5104;50.720;7.044;2023-12-20T04:30:37;7.00;99.90
10129;DHT22;5104;50.720;7.044;2023-12-20T04:33:04;7.00;99.90
10129;DHT22;5104;50.720;7.044;2023-12-20T04:35:31;7.00;99.90
10129;DHT22;5104;50.720;7.044;2023-12-20T04:37:58;7.00;99.90
10129;DHT22;5104;50.720;7.044;2023-12-20T04:40:26;6.90;99.90
10129;DHT22;5104;50.720;7.044;2023-12-20T04:42:53;7.00;99.90
10129;DHT22;5104;50.720;7.044;2023-12-20T04:45:20;6.90;99.90
10129;DHT22;5104;50.720;7.044;2023-12-20T04:47:47;7.00;99.90
10129;DHT22;5104;50.720;7.044;2023-12-20T04:50:14;7.00;99.90
10129;DHT22;5104;50.720;7.044;2023-12-20T04:52:41;7.00;99.90
10129;DHT22;5104;50.720;7.044;2023-12-20T04:55:08;7.00;99.90
10129;DHT22;5104;50.720;7.044;2023-12-20T04:57:37;7.00;99.90
10129;DHT22;5104;50.720;7.044;2023-12-20T05:00:04;7.00;99.90
10129;DHT22;5104;50.720;7.044;2023-12-20T05:02:33;7.00;99.90
10129;DHT22;5104;50.720;7.044;2023-12-20T05:04:59;7.00;99.90
10129;DHT22;5104;50.720;7.044;2023-12-20T05:07:26;6.90;99.90
10129;DHT22;5104;50.720;7.044;2023-12-20T05:09:53;6.90;99.90
10129;DHT22;5104;50.720;7.044;2023-12-20T05:12:20;6.80;99.90
10129;DHT22;5104;50.720;7.044;2023-12-20T05:14:48;6.70;99.90
10129;DHT22;5104;50.720;7.044;2023-12-20T05:17:15;6.60;99.90
10129;DHT22;5104;50.720;7.044;2023-12-20T05:19:42;6.50;99.90
10129;DHT22;5104;50.720;7.044;2023-12-20T05:22:09;6.50;99.90
10129;DHT22;5104;50.720;7.044;2023-12-20T05:24:36;6.50;99.90
10129;DHT22;5104;50.720;7.044;2023-12-20T05:27:04;6.50;99.90
10129;DHT22;5104;50.720;7.044;2023-12-20T05:29:35;6.40;99.90
10129;DHT22;5104;50.720;7.044;2023-12-20T05:32:05;6.30;99.90
10129;DHT22;5104;50.720;7.044;2023-12-20T05:34:32;6.30;99.90
10129;DHT22;5104;50.720;7.044;2023-12-20T05:36:59;6.20;99.90
10129;DHT22;5104;50.720;7.044;2023-12-20T05:39:27;6.10;99.90
10129;DHT22;5104;50.720;7.044;2023-12-20T05:41:56;6.10;99.90
10129;DHT22;5104;50.720;7.044;2023-12-20T05:44:23;6.10;99.90
10129;DHT22;5104;50.720;7.044;2023-12-20T05:46:50;6.00;99.90
10129;DHT22;5104;50.720;7.044;2023-12-20T05:49:18;6.00;99.90
10129;DHT22;5104;50.720;7.044;2023-12-20T05:51:45;6.10;99.90
10129;DHT22;5104;50.720;7.044;2023-12-20T05:54:12;6.10;99.90
10129;DHT22;5104;50.720;7.044;2023-12-20T05:56:39;6.10;99.90
10129;DHT22;5104;50.720;7.044;2023-12-20T05:59:06;6.10;99.90
10129;DHT22;5104;50.720;7.044;2023-12-20T06:01:33;6.10;99.90
10129;DHT22;5104;50.720;7.044;2023-12-20T06:04:00;6.20;99.90
10129;DHT22;5104;50.720;7.044;2023-12-20T06:06:30;6.20;99.90
10129;DHT22;5104;50.720;7.044;2023-12-20T06:08:57;6.30;99.90
10129;DHT22;5104;50.720;7.044;2023-12-20T06:11:24;6.30;99.90
10129;DHT22;5104;50.720;7.044;2023-12-20T06:13:51;6.30;99.90
10129;DHT22;5104;50.720;7.044;2023-12-20T06:16:19;6.30;99.90
10129;DHT22;5104;50.720;7.044;2023-12-20T06:18:45;6.20;99.90
10129;DHT22;5104;50.720;7.044;2023-12-20T06:21:12;6.30;99.90
10129;DHT22;5104;50.720;7.044;2023-12-20T06:23:41;6.30;99.90
10129;DHT22;5104;50.720;7.044;2023-12-20T06:26:08;6.30;99.90
10129;DHT22;5104;50.720;7.044;2023-12-20T06:28:35;6.30;99.90
10129;DHT22;5104;50.720;7.044;2023-12-20T06:31:02;6.40;99.90
10129;DHT22;5104;50.720;7.044;2023-12-20T06:33:29;6.40;99.90
10129;DHT22;5104;50.720;7.044;2023-12-20T06:35:56;6.40;99.90
10129;DHT22;5104;50.720;7.044;2023-12-20T06:38:23;6.50;99.90
10129;DHT22;5104;50.720;7.044;2023-12-20T06:40:51;6.50;99.90
10129;DHT22;5104;50.720;7.044;2023-12-20T06:43:18;6.50;99.90
10129;DHT22;5104;50.720;7.044;2023-12-20T06:45:45;6.60;99.90
10129;DHT22;5104;50.720;7.044;2023-12-20T06:48:12;6.70;99.90
10129;DHT22;5104;50.720;7.044;2023-12-20T06:50:39;6.70;99.90
10129;DHT22;5104;50.720;7.044;2023-12-20T06:53:06;6.70;99.90
10129;DHT22;5104;50.720;7.044;2023-12-20T06:55:33;6.80;99.90
10129;DHT22;5104;50.720;7.044;2023-12-20T06:58:02;6.80;99.90
10129;DHT22;5104;50.720;7.044;2023-12-20T07:00:30;6.90;99.90
10129;DHT22;5104;50.720;7.044;2023-12-20T07:02:57;6.90;99.90
10129;DHT22;5104;50.720;7.044;2023-12-20T07:05:24;6.90;99.90
10129;DHT22;5104;50.720;7.044;2023-12-20T07:07:52;6.90;99.90
10129;DHT22;5104;50.720;7.044;2023-12-20T07:10:19;6.90;99.90
10129;DHT22;5104;50.720;7.044;2023-12-20T07:12:46;6.90;99.90
10129;DHT22;5104;50.720;7.044;2023-12-20T07:15:15;6.90;99.90
10129;DHT22;5104;50.720;7.044;2023-12-20T07:17:42;6.90;99.90
10129;DHT22;5104;50.720;7.044;2023-12-20T07:20:10;7.00;99.90
10129;DHT22;5104;50.720;7.044;2023-12-20T07:22:37;6.90;99.90
10129;DHT22;5104;50.720;7.044;2023-12-20T07:25:05;6.90;99.90
10129;DHT22;5104;50.720;7.044;2023-12-20T07:27:32;7.00;99.90
10129;DHT22;5104;50.720;7.044;2023-12-20T07:29:59;7.00;99.90
10129;DHT22;5104;50.720;7.044;2023-12-20T07:32:27;7.00;99.90
10129;DHT22;5104;50.720;7.044;2023-12-20T07:34:54;7.00;99.90
10129;DHT22;5104;50.720;7.044;2023-12-20T07:37:21;7.10;99.90
10129;DHT22;5104;50.720;7.044;2023-12-20T07:39:48;7.00;99.90
10129;DHT22;5104;50.720;7.044;2023-12-20T07:42:15;6.90;99.90
10129;DHT22;5104;50.720;7.044;2023-12-20T07:44:41;6.90;99.90
10129;DHT22;5104;50.720;7.044;2023-12-20T07:47:08;6.90;99.90
10129;DHT22;5104;50.720;7.044;2023-12-20T07:49:38;6.90;99.90
10129;DHT22;5104;50.720;7.044;2023-12-20T07:52:06;6.90;99.90
10129;DHT22;5104;50.720;7.044;2023-12-20T07:54:33;7.00;99.90
10129;DHT22;5104;50.720;7.044;2023-12-20T07:57:00;7.00;99.90
10129;DHT22;5104;50.720;7.044;2023-12-20T07:59:27;7.00;99.90
10129;DHT22;5104;50.720;7.044;2023-12-20T08:01:54;7.10;99.90
10129;DHT22;5104;50.720;7.044;2023-12-20T08:04:21;7.10;99.90
10129;DHT22;5104;50.720;7.044;2023-12-20T08:06:50;7.10;99.90
10129;DHT22;5104;50.720;7.044;2023-12-20T08:09:17;7.10;99.90
10129;DHT22;5104;50.720;7.044;2023-12-20T08:11:45;7.20;99.90
10129;DHT22;5104;50.720;7.044;2023-12-20T08:14:12;7.20;99.90
10129;DHT22;5104;50.720;7.044;2023-12-20T08:16:39;7.20;99.90
10129;DHT22;5104;50.720;7.044;2023-12-20T08:19:05;7.20;99.90
10129;DHT22;5104;50.720;7.044;2023-12-20T08:21:33;7.20;99.90
10129;DHT22;5104;50.720;7.044;2023-12-20T08:24:01;7.30;99.90
10129;DHT22;5104;50.720;7.044;2023-12-20T08:26:28;7.30;99.90
10129;DHT22;5104;50.720;7.044;2023-12-20T08:28:55;7.30;99.90
10129;DHT22;5104;50.720;7.044;2023-12-20T08:31:22;7.40;99.90
10129;DHT22;5104;50.720;7.044;2023-12-20T08:33:49;7.40;99.90
10129;DHT22;5104;50.720;7.044;2023-12-20T08:36:16;7.30;99.90
10129;DHT22;5104;50.720;7.044;2023-12-20T08:38:44;7.30;99.90
10129;DHT22;5104;50.720;7.044;2023-12-20T08:41:12;7.20;99.90
10129;DHT22;5104;50.720;7.044;2023-12-20T08:43:39;7.20;99.90
10129;DHT22;5104;50.720;7.044;2023-12-20T08:46:07;7.10;99.90
10129;DHT22;5104;50.720;7.044;2023-12-20T08:48:35;7.00;99.90
10129;DHT22;5104;50.720;7.044;2023-12-20T08:51:03;7.00;99.90
10129;DHT22;5104;50.720;7.044;2023-12-20T08:53:30;7.00;99.90
10129;DHT22;5104;50.720;7.044;2023-12-20T08:55:57;7.00;99.90
10129;DHT22;5104;50.720;7.044;2023-12-20T08:58:28;7.00;99.90
10129;DHT22;5104;50.720;7.044;2023-12-20T09:00:55;7.00;99.90
10129;DHT22;5104;50.720;7.044;2023-12-20T09:03:23;7.10;99.90
10129;DHT22;5104;50.720;7.044;2023-12-20T09:05:49;7.20;99.90
10129;DHT22;5104;50.720;7.044;2023-12-20T09:08:16;7.30;99.90
10129;DHT22;5104;50.720;7.044;2023-12-20T09:10:43;7.30;99.90
10129;DHT22;5104;50.720;7.044;2023-12-20T09:13:11;7.40;99.90
10129;DHT22;5104;50.720;7.044;2023-12-20T09:15:39;7.50;99.90
10129;DHT22;5104;50.720;7.044;2023-12-20T09:18:06;7.50;99.90
10129;DHT22;5104;50.720;7.044;2023-12-20T09:20:33;7.60;99.90
10129;DHT22;5104;50.720;7.044;2023-12-20T09:23:00;7.60;85.40
10129;DHT22;5104;50.720;7.044;2023-12-20T09:25:27;7.60;1.00
10129;DHT22;5104;50.720;7.044;2023-12-20T09:27:55;7.70;1.00
10129;DHT22;5104;50.720;7.044;2023-12-20T09:30:22;7.70;1.00
10129;DHT22;5104;50.720;7.044;2023-12-20T09:32:50;7.70;1.00
10129;DHT22;5104;50.720;7.044;2023-12-20T09:35:17;7.80;1.00
10129;DHT22;5104;50.720;7.044;2023-12-20T09:37:44;7.80;99.90
10129;DHT22;5104;50.720;7.044;2023-12-20T09:40:13;7.90;99.90
10129;DHT22;5104;50.720;7.044;2023-12-20T09:42:45;7.90;99.90
10129;DHT22;5104;50.720;7.044;2023-12-20T09:45:15;8.00;99.90
10129;DHT22;5104;50.720;7.044;2023-12-20T09:47:43;8.00;99.90
10129;DHT22;5104;50.720;7.044;2023-12-20T09:50:12;7.90;1.00
10129;DHT22;5104;50.720;7.044;2023-12-20T09:52:40;8.00;1.00
10129;DHT22;5104;50.720;7.044;2023-12-20T09:55:08;8.00;1.00
10129;DHT22;5104;50.720;7.044;2023-12-20T09:57:35;8.00;94.10
10129;DHT22;5104;50.720;7.044;2023-12-20T10:00:02;8.00;1.00
10129;DHT22;5104;50.720;7.044;2023-12-20T10:02:31;8.00;1.00
10129;DHT22;5104;50.720;7.044;2023-12-20T10:04:58;8.00;99.90
10129;DHT22;5104;50.720;7.044;2023-12-20T10:07:27;8.00;3.40
10129;DHT22;5104;50.720;7.044;2023-12-20T10:09:54;8.00;1.00
10129;DHT22;5104;50.720;7.044;2023-12-20T10:12:22;8.00;1.00
10129;DHT22;5104;50.720;7.044;2023-12-20T10:14:49;8.00;1.00
10129;DHT22;5104;50.720;7.044;2023-12-20T10:17:16;8.00;1.00
10129;DHT22;5104;50.720;7.044;2023-12-20T10:19:44;8.00;1.00
10129;DHT22;5104;50.720;7.044;2023-12-20T10:22:11;8.10;1.00
10129;DHT22;5104;50.720;7.044;2023-12-20T10:24:40;8.00;1.00
10129;DHT22;5104;50.720;7.044;2023-12-20T10:27:08;8.10;1.00
10129;DHT22;5104;50.720;7.044;2023-12-20T10:29:35;8.10;99.90
10129;DHT22;5104;50.720;7.044;2023-12-20T10:32:24;8.10;1.00
10129;DHT22;5104;50.720;7.044;2023-12-20T10:34:51;8.20;1.00
10129;DHT22;5104;50.720;7.044;2023-12-20T10:37:18;8.20;1.00
10129;DHT22;5104;50.720;7.044;2023-12-20T10:39:50;8.30;1.00
10129;DHT22;5104;50.720;7.044;2023-12-20T10:42:18;8.30;99.90
10129;DHT22;5104;50.720;7.044;2023-12-20T10:44:47;8.30;1.00
10129;DHT22;5104;50.720;7.044;2023-12-20T10:47:14;8.40;1.00
10129;DHT22;5104;50.720;7.044;2023-12-20T10:49:42;8.40;99.90
10129;DHT22;5104;50.720;7.044;2023-12-20T10:52:11;8.50;99.90
10129;DHT22;5104;50.720;7.044;2023-12-20T10:54:39;8.50;99.90
10129;DHT22;5104;50.720;7.044;2023-12-20T10:57:08;8.40;99.90
10129;DHT22;5104;50.720;7.044;2023-12-20T10:59:37;8.40;99.90
10129;DHT22;5104;50.720;7.044;2023-12-20T11:02:04;8.40;99.90
10129;DHT22;5104;50.720;7.044;2023-12-20T11:04:37;8.40;1.00
10129;DHT22;5104;50.720;7.044;2023-12-20T11:07:13;8.40;1.00
10129;DHT22;5104;50.720;7.044;2023-12-20T11:09:47;8.40;1.00
10129;DHT22;5104;50.720;7.044;2023-12-20T11:12:22;8.50;99.90
10129;DHT22;5104;50.720;7.044;2023-12-20T11:14:54;8.40;1.00
10129;DHT22;5104;50.720;7.044;2023-12-20T11:17:23;8.50;99.90
10129;DHT22;5104;50.720;7.044;2023-12-20T11:20:09;8.50;99.90
10129;DHT22;5104;50.720;7.044;2023-12-20T11:22:40;8.30;1.00
10129;DHT22;5104;50.720;7.044;2023-12-20T11:25:18;8.30;1.00
10129;DHT22;5104;50.720;7.044;2023-12-20T11:28:06;8.50;99.90
10129;DHT22;5104;50.720;7.044;2023-12-20T11:30:41;8.50;99.90
10129;DHT22;5104;50.720;7.044;2023-12-20T11:33:07;8.50;99.90
10129;DHT22;5104;50.720;7.044;2023-12-20T11:35:35;8.50;99.90
10129;DHT22;5104;50.720;7.044;2023-12-20T11:38:02;8.50;99.90
10129;DHT22;5104;50.720;7.044;2023-12-20T11:40:34;8.40;99.90
10129;DHT22;5104;50.720;7.044;2023-12-20T11:43:03;8.40;99.90
10129;DHT22;5104;50.720;7.044;2023-12-20T11:45:30;8.50;99.90
10129;DHT22;5104;50.720;7.044;2023-12-20T11:47:58;8.40;99.90
10129;DHT22;5104;50.720;7.044;2023-12-20T11:50:25;8.30;1.00
10129;DHT22;5104;50.720;7.044;2023-12-20T11:52:52;8.20;99.90
10129;DHT22;5104;50.720;7.044;2023-12-20T11:55:21;8.20;1.00
10129;DHT22;5104;50.720;7.044;2023-12-20T11:57:50;8.20;1.00
10129;DHT22;5104;50.720;7.044;2023-12-20T12:00:18;8.20;1.00
10129;DHT22;5104;50.720;7.044;2023-12-20T12:02:55;8.30;1.00
10129;DHT22;5104;50.720;7.044;2023-12-20T12:05:23;8.40;1.00
10129;DHT22;5104;50.720;7.044;2023-12-20T12:07:50;8.50;99.90
10129;DHT22;5104;50.720;7.044;2023-12-20T12:10:16;8.60;99.90
10129;DHT22;5104;50.720;7.044;2023-12-20T12:12:43;8.70;99.90
10129;DHT22;5104;50.720;7.044;2023-12-20T12:15:10;8.90;99.90
10129;DHT22;5104;50.720;7.044;2023-12-20T12:17:39;8.90;98.10
10129;DHT22;5104;50.720;7.044;2023-12-20T12:20:07;9.00;1.00
10129;DHT22;5104;50.720;7.044;2023-12-20T12:22:35;9.10;1.00
10129;DHT22;5104;50.720;7.044;2023-12-20T12:25:10;9.10;1.00
10129;DHT22;5104;50.720;7.044;2023-12-20T12:27:39;9.00;1.00
10129;DHT22;5104;50.720;7.044;2023-12-20T12:30:08;9.00;1.00
10129;DHT22;5104;50.720;7.044;2023-12-20T12:32:39;9.00;1.00
10129;DHT22;5104;50.720;7.044;2023-12-20T12:35:08;8.90;1.00
10129;DHT22;5104;50.720;7.044;2023-12-20T12:37:37;8.90;1.00
10129;DHT22;5104;50.720;7.044;2023-12-20T12:40:05;8.80;1.00
10129;DHT22;5104;50.720;7.044;2023-12-20T12:42:32;8.70;62.60
10129;DHT22;5104;50.720;7.044;2023-12-20T12:44:59;8.70;99.90
10129;DHT22;5104;50.720;7.044;2023-12-20T12:47:26;8.60;99.90
10129;DHT22;5104;50.720;7.044;2023-12-20T12:49:54;8.60;99.90
10129;DHT22;5104;50.720;7.044;2023-12-20T12:52:21;8.60;89.90
10129;DHT22;5104;50.720;7.044;2023-12-20T12:54:48;8.60;99.90
10129;DHT22;5104;50.720;7.044;2023-12-20T12:57:15;8.60;99.90
10129;DHT22;5104;50.720;7.044;2023-12-20T12:59:43;8.60;99.90
10129;DHT22;5104;50.720;7.044;2023-12-20T13:02:11;8.60;15.00
10129;DHT22;5104;50.720;7.044;2023-12-20T13:04:38;8.50;99.90
10129;DHT22;5104;50.720;7.044;2023-12-20T13:07:07;8.40;99.90
10129;DHT22;5104;50.720;7.044;2023-12-20T13:09:36;8.50;99.90
10129;DHT22;5104;50.720;7.044;2023-12-20T13:12:04;8.40;99.90
10129;DHT22;5104;50.720;7.044;2023-12-20T13:14:33;8.40;99.90
10129;DHT22;5104;50.720;7.044;2023-12-20T13:17:00;8.30;1.00
10129;DHT22;5104;50.720;7.044;2023-12-20T13:19:27;8.40;1.00
10129;DHT22;5104;50.720;7.044;2023-12-20T13:21:53;8.40;1.00
10129;DHT22;5104;50.720;7.044;2023-12-20T13:24:22;8.40;1.00
10129;DHT22;5104;50.720;7.044;2023-12-20T13:26:49;8.40;21.30
10129;DHT22;5104;50.720;7.044;2023-12-20T13:29:16;8.40;1.00
10129;DHT22;5104;50.720;7.044;2023-12-20T13:31:43;8.40;1.00
10129;DHT22;5104;50.720;7.044;2023-12-20T13:34:10;8.40;99.90
10129;DHT22;5104;50.720;7.044;2023-12-20T13:36:38;8.30;1.00
10129;DHT22;5104;50.720;7.044;2023-12-20T13:39:05;8.20;55.90
10129;DHT22;5104;50.720;7.044;2023-12-20T13:41:33;8.20;1.10
10129;DHT22;5104;50.720;7.044;2023-12-20T13:44:00;8.10;1.00
10129;DHT22;5104;50.720;7.044;2023-12-20T13:46:28;8.20;1.00
10129;DHT22;5104;50.720;7.044;2023-12-20T13:48:55;8.20;1.00
10129;DHT22;5104;50.720;7.044;2023-12-20T13:51:22;8.20;99.90
10129;DHT22;5104;50.720;7.044;2023-12-20T13:53:49;8.10;1.00
10129;DHT22;5104;50.720;7.044;2023-12-20T13:56:16;8.00;1.00
10129;DHT22;5104;50.720;7.044;2023-12-20T13:58:47;7.90;1.00
10129;DHT22;5104;50.720;7.044;2023-12-20T14:01:14;7.90;99.90
10129;DHT22;5104;50.720;7.044;2023-12-20T14:03:40;7.90;1.00
10129;DHT22;5104;50.720;7.044;2023-12-20T14:06:07;7.80;1.00
10129;DHT22;5104;50.720;7.044;2023-12-20T14:08:34;7.80;1.00
10129;DHT22;5104;50.720;7.044;2023-12-20T14:11:03;7.80;1.00
10129;DHT22;5104;50.720;7.044;2023-12-20T14:13:30;7.70;99.90
10129;DHT22;5104;50.720;7.044;2023-12-20T14:15:58;7.70;1.00
10129;DHT22;5104;50.720;7.044;2023-12-20T14:18:26;7.70;99.90
10129;DHT22;5104;50.720;7.044;2023-12-20T14:20:53;7.70;99.90
10129;DHT22;5104;50.720;7.044;2023-12-20T14:23:20;7.70;99.90
10129;DHT22;5104;50.720;7.044;2023-12-20T14:25:48;7.70;99.90
10129;DHT22;5104;50.720;7.044;2023-12-20T14:28:15;7.70;99.90
10129;DHT22;5104;50.720;7.044;2023-12-20T14:30:43;7.70;1.00
10129;DHT22;5104;50.720;7.044;2023-12-20T14:33:11;7.70;1.00
10129;DHT22;5104;50.720;7.044;2023-12-20T14:35:39;7.80;1.00
10129;DHT22;5104;50.720;7.044;2023-12-20T14:38:07;7.90;99.90
10129;DHT22;5104;50.720;7.044;2023-12-20T14:40:34;7.90;1.00
10129;DHT22;5104;50.720;7.044;2023-12-20T14:43:01;7.90;1.00
10129;DHT22;5104;50.720;7.044;2023-12-20T14:45:29;8.00;1.00
10129;DHT22;5104;50.720;7.044;2023-12-20T14:47:56;8.00;1.00
10129;DHT22;5104;50.720;7.044;2023-12-20T14:50:25;8.00;99.90
10129;DHT22;5104;50.720;7.044;2023-12-20T14:52:52;8.10;99.90
10129;DHT22;5104;50.720;7.044;2023-12-20T14:55:20;8.10;99.90
10129;DHT22;5104;50.720;7.044;2023-12-20T14:57:47;8.10;1.00
10129;DHT22;5104;50.720;7.044;2023-12-20T15:00:16;8.10;99.90
10129;DHT22;5104;50.720;7.044;2023-12-20T15:02:43;8.00;1.00
10129;DHT22;5104;50.720;7.044;2023-12-20T15:05:10;8.10;1.00
10129;DHT22;5104;50.720;7.044;2023-12-20T15:07:39;8.00;1.00
10129;DHT22;5104;50.720;7.044;2023-12-20T15:10:07;7.90;1.00
10129;DHT22;5104;50.720;7.044;2023-12-20T15:12:34;7.90;85.50
10129;DHT22;5104;50.720;7.044;2023-12-20T15:15:01;7.90;99.90
10129;DHT22;5104;50.720;7.044;2023-12-20T15:17:30;7.80;1.00
10129;DHT22;5104;50.720;7.044;2023-12-20T15:19:57;7.80;1.00
10129;DHT22;5104;50.720;7.044;2023-12-20T15:22:24;7.70;99.90
10129;DHT22;5104;50.720;7.044;2023-12-20T15:24:53;7.70;99.90
10129;DHT22;5104;50.720;7.044;2023-12-20T15:27:21;7.70;1.00
10129;DHT22;5104;50.720;7.044;2023-12-20T15:29:47;7.60;99.90
10129;DHT22;5104;50.720;7.044;2023-12-20T15:32:15;7.60;99.90
10129;DHT22;5104;50.720;7.044;2023-12-20T15:34:41;7.60;1.00
10129;DHT22;5104;50.720;7.044;2023-12-20T15:37:08;7.60;1.00
10129;DHT22;5104;50.720;7.044;2023-12-20T15:39:35;7.60;1.00
10129;DHT22;5104;50.720;7.044;2023-12-20T15:42:04;7.70;99.90
10129;DHT22;5104;50.720;7.044;2023-12-20T15:44:30;7.70;1.00
10129;DHT22;5104;50.720;7.044;2023-12-20T15:46:57;7.80;19.10
10129;DHT22;5104;50.720;7.044;2023-12-20T15:49:24;7.80;26.30
10129;DHT22;5104;50.720;7.044;2023-12-20T15:51:51;7.70;1.00
10129;DHT22;5104;50.720;7.044;2023-12-20T15:54:18;7.70;99.90
10129;DHT22;5104;50.720;7.044;2023-12-20T15:56:45;7.70;99.90
10129;DHT22;5104;50.720;7.044;2023-12-20T15:59:14;7.70;99.90
10129;DHT22;5104;50.720;7.044;2023-12-20T16:01:41;7.70;1.00
10129;DHT22;5104;50.720;7.044;2023-12-20T16:04:08;7.80;1.00
10129;DHT22;5104;50.720;7.044;2023-12-20T16:06:35;7.80;1.00